Terminal Aerodrome Forecast
Issued by NWS Memphis, TN

Home | Current Version | Previous Version | Text Only | Print | Product List | Glossary On
Versions: 1 2 3 4 5 6 7 8 9 10 11 12 13 14 15 16 17 18 19 20 21 22 23 24 25 26 27 28 29 30 31 32 33 34
000
FTUS44 KMEG 201124
TAFMEM
TAF
KMEM 201124Z 2012/2112 21006KT P6SM SCT007 BKN015 OVC035
      TEMPO 2012/2015 OVC007
     FM201600 20010KT P6SM BKN015 OVC250
     FM201900 20010G16KT P6SM SCT030 BKN250
     FM210000 19006KT P6SM BKN150
     FM211000 19008KT P6SM VCSH SCT030 BKN080=

USA.gov is the U.S. government's official web portal to all federal, state and local government web resources and services.